createdAt,value
2019-05-21T00:00:49.983Z,13.40
2019-05-21T00:03:23.652Z,13.40
2019-05-21T00:05:57.344Z,13.40
2019-05-21T00:08:31.934Z,13.40
2019-05-21T00:11:05.803Z,13.30
2019-05-21T00:13:39.473Z,13.50
2019-05-21T00:16:13.306Z,13.40
2019-05-21T00:18:47.856Z,13.40
2019-05-21T00:21:22.411Z,13.30
2019-05-21T00:23:56.158Z,13.30
2019-05-21T00:26:30.523Z,13.30
2019-05-21T00:29:16.132Z,13.30
2019-05-21T00:32:01.757Z,13.30
2019-05-21T00:34:47.437Z,13.30
2019-05-21T00:37:33.161Z,13.20
2019-05-21T00:40:18.925Z,13.20
2019-05-21T00:42:52.466Z,13.20
2019-05-21T00:45:26.287Z,13.20
2019-05-21T00:48:00.680Z,13.20
2019-05-21T00:50:34.426Z,13.20
2019-05-21T00:53:08.154Z,13.20
2019-05-21T00:55:41.759Z,13.20
2019-05-21T00:58:15.482Z,13.10
2019-05-21T01:00:49.187Z,13.10
2019-05-21T01:03:23.015Z,13.10
2019-05-21T01:05:56.523Z,13.10
2019-05-21T01:08:30.316Z,13.00
2019-05-21T01:11:04.050Z,13.00
2019-05-21T01:13:37.638Z,13.00
2019-05-21T01:16:11.212Z,13.00
2019-05-21T01:18:45.539Z,13.00
2019-05-21T01:21:19.921Z,13.00
2019-05-21T01:23:53.680Z,12.90
2019-05-21T01:26:27.380Z,13.00
2019-05-21T01:29:01.010Z,12.90
2019-05-21T01:31:35.571Z,12.90
2019-05-21T01:34:11.451Z,12.90
2019-05-21T01:36:43.619Z,12.90
2019-05-21T01:39:17.203Z,12.90
2019-05-21T01:41:51.087Z,12.90
2019-05-21T01:44:25.108Z,12.90
2019-05-21T01:46:58.636Z,12.90
2019-05-21T01:49:32.236Z,12.90
2019-05-21T01:52:05.826Z,12.90
2019-05-21T01:54:40.385Z,12.90
2019-05-21T01:57:13.926Z,12.90
2019-05-21T01:59:47.805Z,13.00
2019-05-21T02:02:21.591Z,13.00
2019-05-21T02:04:55.190Z,12.90
2019-05-21T02:07:28.762Z,12.80
2019-05-21T02:10:02.390Z,12.70
2019-05-21T02:12:36.061Z,12.70
2019-05-21T02:15:09.883Z,12.60
2019-05-21T02:17:44.505Z,12.60
2019-05-21T02:20:18.174Z,12.60
2019-05-21T02:22:51.726Z,12.50
2019-05-21T02:25:25.487Z,12.50
2019-05-21T02:28:00.022Z,12.50
2019-05-21T02:30:33.715Z,12.50
2019-05-21T02:33:07.530Z,12.50
2019-05-21T02:35:53.719Z,12.50
2019-05-21T02:38:14.711Z,12.50
2019-05-21T02:40:48.427Z,12.50
2019-05-21T02:43:22.741Z,12.50
2019-05-21T02:45:56.485Z,12.50
2019-05-21T02:48:30.054Z,12.50
2019-05-21T02:51:03.577Z,12.50
2019-05-21T02:53:37.417Z,12.50
2019-05-21T02:56:11.082Z,12.60
2019-05-21T02:58:44.922Z,12.60
2019-05-21T03:01:22.388Z,12.60
2019-05-21T03:03:56.069Z,12.60
2019-05-21T03:06:29.854Z,12.60
2019-05-21T03:09:03.573Z,12.60
2019-05-21T03:11:38.002Z,12.60
2019-05-21T03:14:11.575Z,12.70
2019-05-21T03:16:45.918Z,12.60
2019-05-21T03:19:19.523Z,12.60
2019-05-21T03:21:53.112Z,12.60
2019-05-21T03:24:26.737Z,12.60
2019-05-21T03:27:00.583Z,12.60
2019-05-21T03:29:34.221Z,12.70
2019-05-21T03:32:07.843Z,12.70
2019-05-21T03:34:41.573Z,12.70
2019-05-21T03:37:15.131Z,12.70
2019-05-21T03:39:48.767Z,12.70
2019-05-21T03:42:23.701Z,12.80
2019-05-21T03:45:00.518Z,12.70
2019-05-21T03:47:30.808Z,12.70
2019-05-21T03:50:04.567Z,12.80
2019-05-21T03:52:38.312Z,12.80
2019-05-21T03:55:11.898Z,12.70
2019-05-21T03:57:45.506Z,12.80
2019-05-21T04:00:19.175Z,12.80
2019-05-21T04:02:52.824Z,12.80
2019-05-21T04:05:26.543Z,12.80
2019-05-21T04:08:00.233Z,12.80
2019-05-21T04:10:34.024Z,12.70
2019-05-21T04:13:08.040Z,12.80
2019-05-21T04:15:42.384Z,12.80
2019-05-21T04:18:20.499Z,12.80
2019-05-21T04:20:55.011Z,12.70
2019-05-21T04:23:28.699Z,12.70
2019-05-21T04:26:02.478Z,12.70
2019-05-21T04:28:36.115Z,12.80
2019-05-21T04:31:09.943Z,12.80
2019-05-21T04:33:43.567Z,12.70
2019-05-21T04:36:17.862Z,12.80
2019-05-21T04:38:51.385Z,12.80
2019-05-21T04:41:25.151Z,12.90
2019-05-21T04:43:58.850Z,12.90
2019-05-21T04:46:32.365Z,12.70
2019-05-21T04:49:06.120Z,12.80
2019-05-21T04:51:40.656Z,12.70
2019-05-21T04:54:15.228Z,12.70
2019-05-21T04:56:49.439Z,12.70
2019-05-21T04:59:23.245Z,12.70
2019-05-21T05:01:57.010Z,12.70
2019-05-21T05:04:30.880Z,12.80
2019-05-21T05:07:04.746Z,12.80
2019-05-21T05:09:38.565Z,12.80
2019-05-21T05:12:12.357Z,12.80
2019-05-21T05:14:46.151Z,12.80
2019-05-21T05:17:19.893Z,12.80
2019-05-21T05:19:53.540Z,12.80
2019-05-21T05:22:27.152Z,12.80
2019-05-21T05:25:00.896Z,12.90
2019-05-21T05:27:34.487Z,12.90
2019-05-21T05:30:08.247Z,12.80
2019-05-21T05:32:41.929Z,12.80
2019-05-21T05:35:15.615Z,13.10
2019-05-21T05:37:50.212Z,13.50
2019-05-21T05:40:24.005Z,13.60
2019-05-21T05:42:57.875Z,13.70
2019-05-21T05:45:32.433Z,13.50
2019-05-21T05:48:06.251Z,13.40
2019-05-21T05:50:40.945Z,13.10
2019-05-21T05:53:15.393Z,13.10
2019-05-21T05:55:49.003Z,13.10
2019-05-21T05:58:22.977Z,13.00
2019-05-21T06:00:57.448Z,13.00
2019-05-21T06:03:31.249Z,13.00
2019-05-21T06:06:04.828Z,13.00
2019-05-21T06:08:38.870Z,12.90
2019-05-21T06:11:12.431Z,12.80
2019-05-21T06:13:46.030Z,12.80
2019-05-21T06:16:19.672Z,12.80
2019-05-21T06:18:54.040Z,12.70
2019-05-21T06:21:27.884Z,12.60
2019-05-21T06:24:01.580Z,12.60
2019-05-21T06:26:35.351Z,12.60
2019-05-21T06:29:09.108Z,12.60
2019-05-21T06:31:43.579Z,12.50
2019-05-21T06:34:17.141Z,12.50
2019-05-21T06:36:50.830Z,12.60
2019-05-21T06:39:24.749Z,12.60
2019-05-21T06:41:59.114Z,12.50
2019-05-21T06:44:33.546Z,12.70
2019-05-21T06:47:07.870Z,12.70
2019-05-21T06:49:41.496Z,12.60
2019-05-21T06:52:15.304Z,12.50
2019-05-21T06:54:48.981Z,12.40
2019-05-21T06:57:23.497Z,12.40
2019-05-21T07:00:00.474Z,12.40
2019-05-21T07:02:34.185Z,12.40
2019-05-21T07:05:07.768Z,12.40
2019-05-21T07:07:41.601Z,12.30
2019-05-21T07:10:15.218Z,12.30
2019-05-21T07:12:49.063Z,12.30
2019-05-21T07:15:22.930Z,12.30
2019-05-21T07:17:56.496Z,12.30
2019-05-21T07:20:30.344Z,12.30
2019-05-21T07:23:04.841Z,12.20
2019-05-21T07:25:38.564Z,12.20
2019-05-21T07:28:12.416Z,12.20
2019-05-21T07:30:46.866Z,12.20
2019-05-21T07:33:21.354Z,12.20
2019-05-21T07:35:54.900Z,12.20
2019-05-21T07:38:28.470Z,12.30
2019-05-21T07:41:02.920Z,12.30
2019-05-21T07:43:38.088Z,12.30
2019-05-21T07:46:11.852Z,12.30
2019-05-21T07:48:45.727Z,12.30
2019-05-21T07:51:19.790Z,12.30
2019-05-21T07:53:53.366Z,12.30
2019-05-21T07:56:30.483Z,12.40
2019-05-21T07:59:04.668Z,12.30
2019-05-21T08:01:38.223Z,12.40
2019-05-21T08:04:11.895Z,12.40
2019-05-21T08:06:46.355Z,12.50
2019-05-21T08:09:20.063Z,12.50
2019-05-21T08:11:54.656Z,12.50
2019-05-21T08:14:28.254Z,12.50
2019-05-21T08:17:02.059Z,12.40
2019-05-21T08:19:35.656Z,12.50
2019-05-21T08:22:09.244Z,12.50
2019-05-21T08:24:42.883Z,12.50
2019-05-21T08:27:17.365Z,12.60
2019-05-21T08:29:50.942Z,12.60
2019-05-21T08:32:26.012Z,12.60
2019-05-21T08:35:10.461Z,12.60
2019-05-21T08:37:47.645Z,12.70
2019-05-21T08:40:22.327Z,12.70
2019-05-21T08:42:58.870Z,12.60
2019-05-21T08:45:35.767Z,12.60
2019-05-21T08:48:09.640Z,12.60
2019-05-21T08:50:43.839Z,12.60
2019-05-21T08:53:18.605Z,12.60
2019-05-21T08:55:53.500Z,12.70
2019-05-21T08:58:28.418Z,12.80
2019-05-21T09:01:02.023Z,12.80
2019-05-21T09:03:35.630Z,12.90
2019-05-21T09:06:09.351Z,12.90
2019-05-21T09:08:43.748Z,12.80
2019-05-21T09:11:17.589Z,12.80
2019-05-21T09:13:51.835Z,12.90
2019-05-21T09:16:26.193Z,12.90
2019-05-21T09:19:00.626Z,13.00
2019-05-21T09:21:35.167Z,13.10
2019-05-21T09:24:08.913Z,13.10
2019-05-21T09:26:43.438Z,13.00
2019-05-21T09:29:17.815Z,13.10
2019-05-21T09:31:52.526Z,13.10
2019-05-21T09:34:26.526Z,13.00
2019-05-21T09:37:00.254Z,13.10
2019-05-21T09:39:33.811Z,13.20
2019-05-21T09:42:07.426Z,13.20
2019-05-21T09:44:41.337Z,13.10
2019-05-21T09:47:15.955Z,13.10
2019-05-21T09:49:50.629Z,13.10
2019-05-21T09:52:24.409Z,13.10
2019-05-21T09:54:58.046Z,13.10
2019-05-21T09:57:32.799Z,13.10
2019-05-21T10:00:08.212Z,13.30
2019-05-21T10:02:42.000Z,13.30
2019-05-21T10:05:15.759Z,13.30
2019-05-21T10:07:49.888Z,13.40
2019-05-21T10:10:23.520Z,13.40
2019-05-21T10:12:57.160Z,13.40
2019-05-21T10:15:30.920Z,13.40
2019-05-21T10:18:04.534Z,13.50
2019-05-21T10:20:38.237Z,13.40
2019-05-21T10:23:12.041Z,13.40
2019-05-21T10:25:45.791Z,13.50
2019-05-21T10:28:20.272Z,13.50
2019-05-21T10:30:54.152Z,13.50
2019-05-21T10:33:27.701Z,13.50
2019-05-21T10:36:01.332Z,13.50
2019-05-21T10:38:34.919Z,13.50
2019-05-21T10:41:08.493Z,13.50
2019-05-21T10:43:43.101Z,13.40
2019-05-21T10:46:17.322Z,13.40
2019-05-21T10:48:51.940Z,13.50
2019-05-21T10:51:25.640Z,13.60
2019-05-21T10:53:59.321Z,13.60
2019-05-21T10:56:46.662Z,13.60
2019-05-21T10:59:07.573Z,13.60
2019-05-21T11:01:47.029Z,13.60
2019-05-21T11:04:36.289Z,13.60
2019-05-21T11:07:10.001Z,13.50
2019-05-21T11:09:43.845Z,13.40
2019-05-21T11:12:18.465Z,13.50
2019-05-21T11:14:52.990Z,13.40
2019-05-21T11:17:27.976Z,13.40
2019-05-21T11:20:02.268Z,13.30
2019-05-21T11:22:36.018Z,13.30
2019-05-21T11:25:09.569Z,13.30
2019-05-21T11:27:43.158Z,13.30
2019-05-21T11:30:18.879Z,13.30
2019-05-21T11:32:53.895Z,13.30
2019-05-21T11:35:27.933Z,13.20
2019-05-21T11:38:01.946Z,13.30
2019-05-21T11:40:35.599Z,13.40
2019-05-21T11:43:10.099Z,13.40
2019-05-21T11:45:44.389Z,13.40
2019-05-21T11:48:17.985Z,13.50
2019-05-21T11:50:52.119Z,13.60
2019-05-21T11:53:26.001Z,13.50
2019-05-21T11:55:59.730Z,13.60
2019-05-21T11:58:39.400Z,13.50
2019-05-21T12:01:06.946Z,13.50
2019-05-21T12:03:40.714Z,13.50
2019-05-21T12:06:16.757Z,13.40
2019-05-21T12:08:56.693Z,13.50
2019-05-21T12:11:25.078Z,13.50
2019-05-21T12:13:59.974Z,13.50
2019-05-21T12:16:33.623Z,13.60
2019-05-21T12:19:08.494Z,13.60
2019-05-21T12:21:42.008Z,13.80
2019-05-21T12:24:16.462Z,14.00
2019-05-21T12:26:54.638Z,14.00
2019-05-21T12:29:28.380Z,14.10
2019-05-21T12:32:02.815Z,14.00
2019-05-21T12:34:38.890Z,14.00
2019-05-21T12:37:10.028Z,14.10
2019-05-21T12:39:44.402Z,14.10
2019-05-21T12:42:18.133Z,14.10
2019-05-21T12:44:51.730Z,14.20
2019-05-21T12:47:26.213Z,14.20
2019-05-21T12:49:59.771Z,14.00
2019-05-21T12:52:34.004Z,14.10
2019-05-21T12:55:07.460Z,14.20
2019-05-21T12:57:41.106Z,14.10
2019-05-21T13:00:15.467Z,14.00
2019-05-21T13:02:49.208Z,13.90
2019-05-21T13:05:22.874Z,13.90
2019-05-21T13:07:56.689Z,14.00
2019-05-21T13:10:31.152Z,14.00
2019-05-21T13:13:05.744Z,13.90
2019-05-21T13:15:39.479Z,14.00
2019-05-21T13:18:13.186Z,14.00
2019-05-21T13:20:46.897Z,14.00
2019-05-21T13:23:20.788Z,14.00
2019-05-21T13:25:54.526Z,14.10
2019-05-21T13:28:28.237Z,14.00
2019-05-21T13:31:03.483Z,14.00
2019-05-21T13:33:37.032Z,14.00
2019-05-21T13:36:10.911Z,13.90
2019-05-21T13:38:44.583Z,13.90
2019-05-21T13:41:18.296Z,13.90
2019-05-21T13:43:52.636Z,14.00
2019-05-21T13:46:26.364Z,13.90
2019-05-21T13:49:01.626Z,14.00
2019-05-21T13:51:36.414Z,14.00
2019-05-21T13:54:11.035Z,14.00
2019-05-21T13:56:44.673Z,14.00
2019-05-21T13:59:18.510Z,14.00
2019-05-21T14:01:52.349Z,14.10
2019-05-21T14:04:25.975Z,13.90
2019-05-21T14:07:00.240Z,13.80
2019-05-21T14:09:33.902Z,13.80
2019-05-21T14:12:07.536Z,13.80
2019-05-21T14:14:41.262Z,13.90
2019-05-21T14:17:15.011Z,13.70
2019-05-21T14:19:49.612Z,13.70
2019-05-21T14:22:24.052Z,13.80
2019-05-21T14:24:57.908Z,13.80
2019-05-21T14:27:43.698Z,13.70
2019-05-21T14:30:06.000Z,13.80
2019-05-21T14:32:39.772Z,13.80
2019-05-21T14:35:13.444Z,13.70
2019-05-21T14:37:47.184Z,13.70
2019-05-21T14:40:31.002Z,13.60
2019-05-21T14:42:59.929Z,13.70
2019-05-21T14:45:31.267Z,13.70
2019-05-21T14:48:02.742Z,13.60
2019-05-21T14:50:36.923Z,13.60
2019-05-21T14:53:10.676Z,13.60
2019-05-21T14:55:44.324Z,13.60
2019-05-21T14:58:18.706Z,13.60
2019-05-21T15:00:52.276Z,13.70
2019-05-21T15:03:25.855Z,13.70
2019-05-21T15:05:59.349Z,13.60
2019-05-21T15:08:33.686Z,13.60
2019-05-21T15:11:07.256Z,13.60
2019-05-21T15:13:41.787Z,13.60
2019-05-21T15:16:16.101Z,13.60
2019-05-21T15:18:50.468Z,13.60
2019-05-21T15:21:25.228Z,13.60
2019-05-21T15:23:58.825Z,13.60
2019-05-21T15:26:32.446Z,13.60
2019-05-21T15:29:06.170Z,13.60
2019-05-21T15:31:39.892Z,13.60
2019-05-21T15:34:13.441Z,13.60
2019-05-21T15:36:47.067Z,13.50
2019-05-21T15:39:20.657Z,13.50
2019-05-21T15:41:54.489Z,13.50
2019-05-21T15:44:28.120Z,13.50
2019-05-21T15:47:01.948Z,13.50
2019-05-21T15:49:37.181Z,13.50
2019-05-21T15:52:10.231Z,13.40
2019-05-21T15:54:43.895Z,13.50
2019-05-21T15:57:18.526Z,13.40
2019-05-21T15:59:52.263Z,13.40
2019-05-21T16:02:26.030Z,13.50
2019-05-21T16:04:59.612Z,13.40
2019-05-21T16:07:33.384Z,13.40
2019-05-21T16:10:08.052Z,13.40
2019-05-21T16:12:41.607Z,13.50
2019-05-21T16:15:15.143Z,13.40
2019-05-21T16:17:49.496Z,13.50
2019-05-21T16:20:23.314Z,13.50
2019-05-21T16:22:56.962Z,13.50
2019-05-21T16:25:31.517Z,13.50
2019-05-21T16:28:05.169Z,13.50
2019-05-21T16:30:38.914Z,13.50
2019-05-21T16:33:12.499Z,13.50
2019-05-21T16:35:46.356Z,13.40
2019-05-21T16:38:19.967Z,13.40
2019-05-21T16:40:54.574Z,13.30
2019-05-21T16:43:28.333Z,13.30
2019-05-21T16:46:02.067Z,13.40
2019-05-21T16:48:35.650Z,13.30
2019-05-21T16:51:09.295Z,13.30
2019-05-21T16:53:42.876Z,13.30
2019-05-21T16:56:16.715Z,13.40
2019-05-21T16:58:51.207Z,13.30
2019-05-21T17:01:24.935Z,13.30
2019-05-21T17:04:00.302Z,13.30
2019-05-21T17:06:33.090Z,13.30
2019-05-21T17:09:06.698Z,13.30
2019-05-21T17:11:40.728Z,13.30
2019-05-21T17:14:15.197Z,13.20
2019-05-21T17:16:48.728Z,13.20
2019-05-21T17:19:22.410Z,13.20
2019-05-21T17:21:56.087Z,13.20
2019-05-21T17:24:30.022Z,13.30
2019-05-21T17:27:04.558Z,13.20
2019-05-21T17:29:38.188Z,13.20
2019-05-21T17:32:11.887Z,13.20
2019-05-21T17:34:45.524Z,13.10
2019-05-21T17:37:19.098Z,13.10
2019-05-21T17:39:52.727Z,13.10
2019-05-21T17:42:26.475Z,13.10
2019-05-21T17:45:00.061Z,13.20
2019-05-21T17:47:33.713Z,13.10
2019-05-21T17:50:08.019Z,13.10
2019-05-21T17:52:41.745Z,13.10
2019-05-21T17:55:15.565Z,13.10
2019-05-21T17:57:50.110Z,13.00
2019-05-21T18:00:24.388Z,13.00
2019-05-21T18:02:57.983Z,12.90
2019-05-21T18:05:31.660Z,12.90
2019-05-21T18:08:05.569Z,12.90
2019-05-21T18:10:40.052Z,12.90
2019-05-21T18:13:13.801Z,12.80
2019-05-21T18:15:49.216Z,12.80
2019-05-21T18:18:22.923Z,12.80
2019-05-21T18:20:58.047Z,12.70
2019-05-21T18:23:31.656Z,12.70
2019-05-21T18:26:05.419Z,12.70
2019-05-21T18:28:39.134Z,12.70
2019-05-21T18:31:12.795Z,12.70
2019-05-21T18:33:46.567Z,12.60
2019-05-21T18:36:21.218Z,12.60
2019-05-21T18:38:54.840Z,12.60
2019-05-21T18:41:28.451Z,12.60
2019-05-21T18:44:02.804Z,12.60
2019-05-21T18:46:36.586Z,12.60
2019-05-21T18:49:10.234Z,12.60
2019-05-21T18:51:43.972Z,12.50
2019-05-21T18:54:17.593Z,12.50
2019-05-21T18:56:51.595Z,12.50
2019-05-21T18:59:25.245Z,12.40
2019-05-21T19:01:59.720Z,12.40
2019-05-21T19:04:36.316Z,12.40
2019-05-21T19:07:06.914Z,12.40
2019-05-21T19:09:40.475Z,12.40
2019-05-21T19:12:14.485Z,12.40
2019-05-21T19:14:48.319Z,12.40
2019-05-21T19:17:34.624Z,12.40
2019-05-21T19:19:55.765Z,12.30
2019-05-21T19:22:29.499Z,12.30
2019-05-21T19:25:02.982Z,12.40
2019-05-21T19:27:36.603Z,12.40
2019-05-21T19:30:10.380Z,12.40
2019-05-21T19:32:44.111Z,12.30
2019-05-21T19:35:17.832Z,12.30
2019-05-21T19:37:51.500Z,12.30
2019-05-21T19:40:25.111Z,12.30
2019-05-21T19:42:58.779Z,12.30
2019-05-21T19:45:32.369Z,12.30
2019-05-21T19:48:06.389Z,12.30
2019-05-21T19:50:39.981Z,12.30
2019-05-21T19:53:13.850Z,12.30
2019-05-21T19:55:47.400Z,12.30
2019-05-21T19:58:21.746Z,12.40
2019-05-21T20:00:55.445Z,12.40
2019-05-21T20:03:29.159Z,12.40
2019-05-21T20:06:02.759Z,12.30
2019-05-21T20:08:36.476Z,12.30
2019-05-21T20:11:10.154Z,12.30
2019-05-21T20:13:43.929Z,12.30
2019-05-21T20:16:17.549Z,12.30
2019-05-21T20:18:51.064Z,12.30
2019-05-21T20:21:25.580Z,12.30
2019-05-21T20:23:59.260Z,12.30
2019-05-21T20:26:32.891Z,12.30
2019-05-21T20:29:06.654Z,12.30
2019-05-21T20:31:40.167Z,12.40
2019-05-21T20:34:13.976Z,12.40
2019-05-21T20:36:47.538Z,12.40
2019-05-21T20:39:22.104Z,12.40
2019-05-21T20:41:55.908Z,12.40
2019-05-21T20:44:29.513Z,12.40
2019-05-21T20:47:03.190Z,12.50
2019-05-21T20:49:36.985Z,12.40
2019-05-21T20:52:18.551Z,12.40
2019-05-21T20:54:44.111Z,12.50
2019-05-21T20:57:17.945Z,12.50
2019-05-21T20:59:51.681Z,12.50
2019-05-21T21:02:25.401Z,12.50
2019-05-21T21:04:59.971Z,12.50
2019-05-21T21:07:33.688Z,12.50
2019-05-21T21:10:07.740Z,12.60
2019-05-21T21:12:41.473Z,12.60
2019-05-21T21:15:14.978Z,12.60
2019-05-21T21:17:48.792Z,12.60
2019-05-21T21:20:22.385Z,12.60
2019-05-21T21:22:55.986Z,12.60
2019-05-21T21:25:29.685Z,12.50
2019-05-21T21:28:03.320Z,12.60
2019-05-21T21:30:37.096Z,12.60
2019-05-21T21:33:10.810Z,12.60
2019-05-21T21:35:44.662Z,12.50
2019-05-21T21:38:18.223Z,12.60
2019-05-21T21:40:51.947Z,12.60
2019-05-21T21:43:25.483Z,12.60
2019-05-21T21:45:59.092Z,12.50
2019-05-21T21:48:32.615Z,12.50
2019-05-21T21:51:06.217Z,12.50
2019-05-21T21:53:39.895Z,12.50
2019-05-21T21:56:14.461Z,12.50
2019-05-21T21:58:48.242Z,12.50
2019-05-21T22:01:24.375Z,12.50
2019-05-21T22:03:58.023Z,12.50
2019-05-21T22:06:32.553Z,12.50
2019-05-21T22:09:06.241Z,12.50
2019-05-21T22:11:40.036Z,12.50
2019-05-21T22:14:13.728Z,12.50
2019-05-21T22:16:51.314Z,12.50
2019-05-21T22:19:21.093Z,12.50
2019-05-21T22:21:54.777Z,12.50
2019-05-21T22:24:28.497Z,12.50
2019-05-21T22:27:02.204Z,12.50
2019-05-21T22:29:35.904Z,12.50
2019-05-21T22:32:10.426Z,12.60
2019-05-21T22:34:44.130Z,12.50
2019-05-21T22:37:18.482Z,12.50
2019-05-21T22:39:52.111Z,12.60
2019-05-21T22:42:26.427Z,12.60
2019-05-21T22:45:08.063Z,12.60
2019-05-21T22:47:33.639Z,12.60
2019-05-21T22:50:07.959Z,12.60
2019-05-21T22:52:41.749Z,12.50
2019-05-21T22:55:15.468Z,12.60
2019-05-21T22:57:49.219Z,12.60
2019-05-21T23:00:23.702Z,12.60
2019-05-21T23:02:57.395Z,12.60
2019-05-21T23:05:31.711Z,12.60
2019-05-21T23:08:06.158Z,12.60
2019-05-21T23:10:40.551Z,12.60
2019-05-21T23:13:14.282Z,12.60
2019-05-21T23:15:47.873Z,12.60
2019-05-21T23:18:21.640Z,12.60
2019-05-21T23:20:56.077Z,12.60
2019-05-21T23:23:29.668Z,12.60
2019-05-21T23:26:03.404Z,12.60
2019-05-21T23:28:37.186Z,12.60
2019-05-21T23:31:10.797Z,12.60
2019-05-21T23:33:44.523Z,12.60
2019-05-21T23:36:18.166Z,12.60
2019-05-21T23:38:51.784Z,12.60
2019-05-21T23:41:26.094Z,12.60
2019-05-21T23:43:59.812Z,12.60
2019-05-21T23:46:33.663Z,12.60
2019-05-21T23:49:07.951Z,12.50
2019-05-21T23:51:41.510Z,12.60
2019-05-21T23:54:15.084Z,12.60
2019-05-21T23:56:48.881Z,12.60
2019-05-21T23:59:22.444Z,12.60
